sensor_id;sensor_type;location;lat;lon;timestamp;P1;durP1;ratioP1;P2;durP2;ratioP2
25649;SDS011;13505;45.196;5.696;2022-09-03T04:00:50;7.07;;;5.30;;
25649;SDS011;13505;45.196;5.696;2022-09-03T04:05:41;6.38;;;5.53;;
25649;SDS011;13505;45.196;5.696;2022-09-03T04:10:31;5.95;;;4.07;;
25649;SDS011;13505;45.196;5.696;2022-09-03T04:15:21;6.17;;;3.80;;
25649;SDS011;13505;45.196;5.696;2022-09-03T04:20:12;7.70;;;4.38;;
25649;SDS011;13505;45.196;5.696;2022-09-03T04:25:02;5.70;;;4.40;;
25649;SDS011;13505;45.196;5.696;2022-09-03T04:29:53;5.85;;;4.30;;
25649;SDS011;13505;45.196;5.696;2022-09-03T04:34:43;5.57;;;3.90;;
25649;SDS011;13505;45.196;5.696;2022-09-03T04:39:33;6.78;;;4.03;;
25649;SDS011;13505;45.196;5.696;2022-09-03T04:44:24;4.63;;;3.60;;
25649;SDS011;13505;45.196;5.696;2022-09-03T04:49:14;11.53;;;5.03;;
25649;SDS011;13505;45.196;5.696;2022-09-03T04:54:04;9.87;;;6.50;;
25649;SDS011;13505;45.196;5.696;2022-09-03T04:58:55;8.83;;;6.23;;
25649;SDS011;13505;45.196;5.696;2022-09-03T05:03:47;6.85;;;5.78;;
25649;SDS011;13505;45.196;5.696;2022-09-03T05:08:41;6.95;;;5.38;;
25649;SDS011;13505;45.196;5.696;2022-09-03T05:13:33;9.77;;;4.78;;
25649;SDS011;13505;45.196;5.696;2022-09-03T05:18:24;5.93;;;3.97;;
25649;SDS011;13505;45.196;5.696;2022-09-03T05:23:14;6.87;;;4.17;;
25649;SDS011;13505;45.196;5.696;2022-09-03T05:28:05;8.13;;;3.30;;
25649;SDS011;13505;45.196;5.696;2022-09-03T05:32:56;4.38;;;3.25;;
25649;SDS011;13505;45.196;5.696;2022-09-03T05:37:46;7.28;;;3.30;;
25649;SDS011;13505;45.196;5.696;2022-09-03T05:42:37;10.38;;;3.38;;
25649;SDS011;13505;45.196;5.696;2022-09-03T05:47:27;4.75;;;3.15;;
25649;SDS011;13505;45.196;5.696;2022-09-03T05:52:18;5.37;;;3.10;;
25649;SDS011;13505;45.196;5.696;2022-09-03T05:57:10;6.68;;;3.30;;
25649;SDS011;13505;45.196;5.696;2022-09-03T06:02:01;5.18;;;3.58;;
25649;SDS011;13505;45.196;5.696;2022-09-03T06:06:51;7.88;;;3.95;;
25649;SDS011;13505;45.196;5.696;2022-09-03T06:11:42;7.55;;;4.15;;
25649;SDS011;13505;45.196;5.696;2022-09-03T06:16:34;5.85;;;4.40;;
25649;SDS011;13505;45.196;5.696;2022-09-03T06:21:26;6.68;;;4.32;;
25649;SDS011;13505;45.196;5.696;2022-09-03T06:26:18;7.40;;;4.32;;
25649;SDS011;13505;45.196;5.696;2022-09-03T06:31:10;11.77;;;5.82;;
25649;SDS011;13505;45.196;5.696;2022-09-03T06:36:04;7.15;;;5.45;;
25649;SDS011;13505;45.196;5.696;2022-09-03T06:40:59;9.77;;;5.45;;
25649;SDS011;13505;45.196;5.696;2022-09-03T06:45:56;7.47;;;4.90;;
25649;SDS011;13505;45.196;5.696;2022-09-03T06:51:08;8.95;;;4.47;;
25649;SDS011;13505;45.196;5.696;2022-09-03T06:56:01;9.85;;;4.97;;
25649;SDS011;13505;45.196;5.696;2022-09-03T07:00:53;8.20;;;5.20;;
25649;SDS011;13505;45.196;5.696;2022-09-03T07:05:49;8.25;;;6.53;;
25649;SDS011;13505;45.196;5.696;2022-09-03T07:10:40;9.60;;;4.90;;
25649;SDS011;13505;45.196;5.696;2022-09-03T07:15:35;7.97;;;4.55;;
25649;SDS011;13505;45.196;5.696;2022-09-03T07:20:25;7.77;;;4.50;;
25649;SDS011;13505;45.196;5.696;2022-09-03T07:25:16;4.95;;;3.70;;
25649;SDS011;13505;45.196;5.696;2022-09-03T07:30:06;7.50;;;4.50;;
25649;SDS011;13505;45.196;5.696;2022-09-03T07:34:59;7.40;;;3.83;;
25649;SDS011;13505;45.196;5.696;2022-09-03T07:39:49;6.53;;;3.30;;
25649;SDS011;13505;45.196;5.696;2022-09-03T07:44:39;5.77;;;3.23;;
25649;SDS011;13505;45.196;5.696;2022-09-03T07:49:30;5.00;;;3.03;;
25649;SDS011;13505;45.196;5.696;2022-09-03T07:54:20;7.70;;;2.93;;
25649;SDS011;13505;45.196;5.696;2022-09-03T07:59:12;6.60;;;3.22;;
25649;SDS011;13505;45.196;5.696;2022-09-03T08:04:03;5.20;;;2.70;;
25649;SDS011;13505;45.196;5.696;2022-09-03T08:08:59;4.47;;;2.83;;
25649;SDS011;13505;45.196;5.696;2022-09-03T08:13:55;2.78;;;2.30;;
25649;SDS011;13505;45.196;5.696;2022-09-03T08:18:50;5.38;;;2.50;;
25649;SDS011;13505;45.196;5.696;2022-09-03T08:23:41;12.03;;;3.17;;
25649;SDS011;13505;45.196;5.696;2022-09-03T08:28:33;3.25;;;2.75;;
25649;SDS011;13505;45.196;5.696;2022-09-03T08:33:25;7.57;;;2.83;;
25649;SDS011;13505;45.196;5.696;2022-09-03T08:38:36;9.23;;;3.60;;
25649;SDS011;13505;45.196;5.696;2022-09-03T08:43:27;9.65;;;3.55;;
25649;SDS011;13505;45.196;5.696;2022-09-03T08:48:18;5.32;;;2.90;;
25649;SDS011;13505;45.196;5.696;2022-09-03T08:53:16;4.47;;;2.50;;
25649;SDS011;13505;45.196;5.696;2022-09-03T08:58:16;4.57;;;3.10;;
25649;SDS011;13505;45.196;5.696;2022-09-03T09:08:11;6.05;;;2.88;;
25649;SDS011;13505;45.196;5.696;2022-09-03T09:18:00;4.03;;;2.78;;
25649;SDS011;13505;45.196;5.696;2022-09-03T09:23:05;5.53;;;3.05;;
25649;SDS011;13505;45.196;5.696;2022-09-03T09:28:00;4.93;;;3.10;;
25649;SDS011;13505;45.196;5.696;2022-09-03T09:33:02;5.65;;;3.10;;
25649;SDS011;13505;45.196;5.696;2022-09-03T09:37:54;4.33;;;3.53;;
25649;SDS011;13505;45.196;5.696;2022-09-03T09:42:46;5.70;;;3.55;;
25649;SDS011;13505;45.196;5.696;2022-09-03T09:47:37;6.20;;;3.87;;
25649;SDS011;13505;45.196;5.696;2022-09-03T09:52:29;6.53;;;3.45;;
25649;SDS011;13505;45.196;5.696;2022-09-03T09:57:21;6.68;;;4.22;;
25649;SDS011;13505;45.196;5.696;2022-09-03T10:02:22;6.75;;;4.40;;
25649;SDS011;13505;45.196;5.696;2022-09-03T10:12:24;5.25;;;4.22;;
25649;SDS011;13505;45.196;5.696;2022-09-03T10:17:29;8.75;;;4.55;;
25649;SDS011;13505;45.196;5.696;2022-09-03T10:22:21;6.35;;;4.45;;
25649;SDS011;13505;45.196;5.696;2022-09-03T10:27:15;7.10;;;4.00;;
25649;SDS011;13505;45.196;5.696;2022-09-03T10:47:53;5.20;;;3.55;;
25649;SDS011;13505;45.196;5.696;2022-09-03T10:53:13;4.20;;;3.78;;
25649;SDS011;13505;45.196;5.696;2022-09-03T10:58:36;7.05;;;3.35;;
25649;SDS011;13505;45.196;5.696;2022-09-03T11:08:43;5.78;;;3.30;;
25649;SDS011;13505;45.196;5.696;2022-09-03T11:13:46;5.03;;;2.97;;
25649;SDS011;13505;45.196;5.696;2022-09-03T11:18:47;4.10;;;2.85;;
25649;SDS011;13505;45.196;5.696;2022-09-03T11:23:44;6.32;;;3.55;;
25649;SDS011;13505;45.196;5.696;2022-09-03T11:33:34;4.38;;;2.88;;
25649;SDS011;13505;45.196;5.696;2022-09-03T11:38:38;4.15;;;3.30;;
25649;SDS011;13505;45.196;5.696;2022-09-03T11:43:32;3.95;;;3.10;;
25649;SDS011;13505;45.196;5.696;2022-09-03T11:48:43;7.80;;;3.90;;
25649;SDS011;13505;45.196;5.696;2022-09-03T11:53:35;3.88;;;3.22;;
25649;SDS011;13505;45.196;5.696;2022-09-03T11:58:29;9.13;;;3.67;;
25649;SDS011;13505;45.196;5.696;2022-09-03T12:03:26;10.57;;;5.65;;
25649;SDS011;13505;45.196;5.696;2022-09-03T12:23:10;5.72;;;3.97;;
25649;SDS011;13505;45.196;5.696;2022-09-03T12:28:10;4.30;;;3.45;;
25649;SDS011;13505;45.196;5.696;2022-09-03T12:33:03;4.97;;;3.72;;
25649;SDS011;13505;45.196;5.696;2022-09-03T12:37:55;8.80;;;3.50;;
25649;SDS011;13505;45.196;5.696;2022-09-03T12:42:45;5.27;;;3.80;;
25649;SDS011;13505;45.196;5.696;2022-09-03T12:47:39;5.45;;;3.75;;
25649;SDS011;13505;45.196;5.696;2022-09-03T12:57:24;5.15;;;3.67;;
25649;SDS011;13505;45.196;5.696;2022-09-03T13:02:22;4.70;;;3.75;;
25649;SDS011;13505;45.196;5.696;2022-09-03T13:07:22;7.33;;;3.53;;
25649;SDS011;13505;45.196;5.696;2022-09-03T13:22:25;4.05;;;3.20;;
25649;SDS011;13505;45.196;5.696;2022-09-03T13:27:27;5.53;;;3.30;;
25649;SDS011;13505;45.196;5.696;2022-09-03T13:42:32;7.53;;;3.40;;
25649;SDS011;13505;45.196;5.696;2022-09-03T13:47:34;5.53;;;3.33;;
25649;SDS011;13505;45.196;5.696;2022-09-03T14:03:10;4.78;;;3.30;;
25649;SDS011;13505;45.196;5.696;2022-09-03T14:08:20;5.13;;;3.50;;
25649;SDS011;13505;45.196;5.696;2022-09-03T14:23:48;4.07;;;3.10;;
25649;SDS011;13505;45.196;5.696;2022-09-03T14:28:48;9.25;;;4.00;;
25649;SDS011;13505;45.196;5.696;2022-09-03T14:44:39;7.57;;;4.32;;
25649;SDS011;13505;45.196;5.696;2022-09-03T14:54:33;8.88;;;4.45;;
25649;SDS011;13505;45.196;5.696;2022-09-03T15:16:02;8.02;;;3.80;;
25649;SDS011;13505;45.196;5.696;2022-09-03T15:25:57;6.95;;;3.58;;
25649;SDS011;13505;45.196;5.696;2022-09-03T15:36:37;5.78;;;3.42;;
25649;SDS011;13505;45.196;5.696;2022-09-03T15:47:04;13.55;;;4.03;;
25649;SDS011;13505;45.196;5.696;2022-09-03T15:57:11;39.80;;;8.25;;
25649;SDS011;13505;45.196;5.696;2022-09-03T16:07:26;8.88;;;3.55;;
25649;SDS011;13505;45.196;5.696;2022-09-03T16:17:48;6.82;;;3.30;;
25649;SDS011;13505;45.196;5.696;2022-09-03T16:38:28;4.68;;;3.13;;
25649;SDS011;13505;45.196;5.696;2022-09-03T16:58:47;3.70;;;2.90;;
25649;SDS011;13505;45.196;5.696;2022-09-03T17:14:11;4.15;;;2.80;;
25649;SDS011;13505;45.196;5.696;2022-09-03T17:19:31;4.18;;;3.00;;
25649;SDS011;13505;45.196;5.696;2022-09-03T17:24:39;7.18;;;3.15;;
25649;SDS011;13505;45.196;5.696;2022-09-03T17:40:12;4.28;;;2.78;;
25649;SDS011;13505;45.196;5.696;2022-09-03T17:45:16;8.07;;;3.28;;
25649;SDS011;13505;45.196;5.696;2022-09-03T17:50:24;5.75;;;2.80;;
25649;SDS011;13505;45.196;5.696;2022-09-03T18:00:39;5.05;;;2.95;;
25649;SDS011;13505;45.196;5.696;2022-09-03T18:05:53;7.05;;;2.78;;
25649;SDS011;13505;45.196;5.696;2022-09-03T18:16:18;5.25;;;3.47;;
25649;SDS011;13505;45.196;5.696;2022-09-03T18:21:19;8.32;;;3.70;;
25649;SDS011;13505;45.196;5.696;2022-09-03T18:26:31;7.63;;;5.55;;
25649;SDS011;13505;45.196;5.696;2022-09-03T18:31:47;6.97;;;5.20;;
25649;SDS011;13505;45.196;5.696;2022-09-03T18:36:56;10.82;;;6.20;;
25649;SDS011;13505;45.196;5.696;2022-09-03T18:42:11;6.90;;;2.38;;
25649;SDS011;13505;45.196;5.696;2022-09-03T18:53:13;5.18;;;2.00;;
25649;SDS011;13505;45.196;5.696;2022-09-03T18:58:45;4.43;;;1.52;;
25649;SDS011;13505;45.196;5.696;2022-09-03T19:10:04;5.35;;;3.00;;
25649;SDS011;13505;45.196;5.696;2022-09-03T19:15:33;4.82;;;1.90;;
25649;SDS011;13505;45.196;5.696;2022-09-03T19:21:02;10.45;;;3.53;;
25649;SDS011;13505;45.196;5.696;2022-09-03T19:26:22;6.65;;;2.42;;
25649;SDS011;13505;45.196;5.696;2022-09-03T19:31:55;7.65;;;3.28;;
25649;SDS011;13505;45.196;5.696;2022-09-03T19:37:17;5.88;;;2.33;;
25649;SDS011;13505;45.196;5.696;2022-09-03T19:53:32;3.50;;;2.47;;
25649;SDS011;13505;45.196;5.696;2022-09-03T19:58:44;4.97;;;2.42;;
25649;SDS011;13505;45.196;5.696;2022-09-03T20:03:59;5.00;;;2.38;;
25649;SDS011;13505;45.196;5.696;2022-09-03T20:09:11;5.28;;;2.25;;
25649;SDS011;13505;45.196;5.696;2022-09-03T20:14:23;5.25;;;3.13;;
25649;SDS011;13505;45.196;5.696;2022-09-03T20:45:20;6.88;;;2.70;;
25649;SDS011;13505;45.196;5.696;2022-09-03T20:55:37;5.00;;;2.53;;
25649;SDS011;13505;45.196;5.696;2022-09-03T21:00:40;4.32;;;2.72;;
25649;SDS011;13505;45.196;5.696;2022-09-03T21:05:40;4.07;;;2.50;;
25649;SDS011;13505;45.196;5.696;2022-09-03T21:20:46;7.00;;;3.22;;
25649;SDS011;13505;45.196;5.696;2022-09-03T21:25:50;7.37;;;3.70;;
25649;SDS011;13505;45.196;5.696;2022-09-03T21:30:46;6.78;;;4.15;;
25649;SDS011;13505;45.196;5.696;2022-09-03T21:35:43;10.85;;;4.20;;
25649;SDS011;13505;45.196;5.696;2022-09-03T21:40:42;7.43;;;3.10;;
25649;SDS011;13505;45.196;5.696;2022-09-03T21:50:53;6.00;;;2.90;;
